createdAt,value
2018-05-17T00:01:56.366Z,11.20
2018-05-17T00:04:24.486Z,11.50
2018-05-17T00:06:52.618Z,11.68
2018-05-17T00:09:20.773Z,10.50
2018-05-17T00:11:49.281Z,10.93
2018-05-17T00:14:18.171Z,12.55
2018-05-17T00:16:47.067Z,10.68
2018-05-17T00:19:15.953Z,13.18
2018-05-17T00:21:44.494Z,11.30
2018-05-17T00:24:12.620Z,10.27
2018-05-17T00:26:41.474Z,11.88
2018-05-17T00:29:11.085Z,13.60
2018-05-17T00:31:39.202Z,10.90
2018-05-17T00:34:07.324Z,11.38
2018-05-17T00:36:35.456Z,10.00
2018-05-17T00:39:05.600Z,11.95
2018-05-17T00:41:33.722Z,9.85
2018-05-17T00:44:01.837Z,11.30
2018-05-17T00:46:29.973Z,14.82
2018-05-17T00:48:59.124Z,10.20
2018-05-17T00:51:27.235Z,11.10
2018-05-17T00:53:55.378Z,11.90
2018-05-17T00:56:23.493Z,16.83
2018-05-17T00:58:51.627Z,12.18
2018-05-17T01:01:19.750Z,12.52
2018-05-17T01:03:47.866Z,11.52
2018-05-17T01:06:15.992Z,11.85
2018-05-17T01:08:44.102Z,11.32
2018-05-17T01:11:12.223Z,11.90
2018-05-17T01:13:40.381Z,12.02
2018-05-17T01:16:08.488Z,11.88
2018-05-17T01:18:36.602Z,10.48
2018-05-17T01:21:04.730Z,11.15
2018-05-17T01:23:32.843Z,12.30
2018-05-17T01:26:00.982Z,12.70
2018-05-17T01:28:31.136Z,12.40
2018-05-17T01:30:59.252Z,11.90
2018-05-17T01:33:27.371Z,11.73
2018-05-17T01:35:55.490Z,12.00
2018-05-17T01:38:29.145Z,12.40
2018-05-17T01:40:57.662Z,11.32
2018-05-17T01:43:25.902Z,11.50
2018-05-17T01:45:54.028Z,11.63
2018-05-17T01:48:22.263Z,13.43
2018-05-17T01:50:50.396Z,13.27
2018-05-17T01:53:18.513Z,12.45
2018-05-17T01:55:47.504Z,13.80
2018-05-17T01:58:15.627Z,16.80
2018-05-17T02:00:43.750Z,12.82
2018-05-17T02:03:12.642Z,13.40
2018-05-17T02:05:40.775Z,11.52
2018-05-17T02:08:08.915Z,13.40
2018-05-17T02:10:37.336Z,12.90
2018-05-17T02:13:05.445Z,12.98
2018-05-17T02:15:33.588Z,12.07
2018-05-17T02:18:02.803Z,15.02
2018-05-17T02:20:30.928Z,13.15
2018-05-17T02:22:59.058Z,13.45
2018-05-17T02:25:27.172Z,16.70
2018-05-17T02:27:56.348Z,14.95
2018-05-17T02:30:24.486Z,17.10
2018-05-17T02:32:52.603Z,14.10
2018-05-17T02:35:20.734Z,19.65
2018-05-17T02:37:48.877Z,17.55
2018-05-17T02:40:16.982Z,18.58
2018-05-17T02:42:45.877Z,18.27
2018-05-17T02:45:14.004Z,19.12
2018-05-17T02:47:43.140Z,25.15
2018-05-17T02:50:11.256Z,20.58
2018-05-17T02:52:39.376Z,23.90
2018-05-17T02:55:07.517Z,23.35
2018-05-17T02:57:36.056Z,21.90
2018-05-17T03:00:04.190Z,26.85
2018-05-17T03:02:32.322Z,26.35
2018-05-17T03:05:00.445Z,23.65
2018-05-17T03:07:28.565Z,28.35
2018-05-17T03:09:56.684Z,24.75
2018-05-17T03:12:24.791Z,28.08
2018-05-17T03:14:53.750Z,27.08
2018-05-17T03:17:21.858Z,27.85
2018-05-17T03:19:49.996Z,28.33
2018-05-17T03:22:18.113Z,29.70
2018-05-17T03:24:46.227Z,27.85
2018-05-17T03:27:14.343Z,33.28
2018-05-17T03:29:42.501Z,32.00
2018-05-17T03:32:11.019Z,28.87
2018-05-17T03:34:39.388Z,29.08
2018-05-17T03:37:07.500Z,28.98
2018-05-17T03:39:35.611Z,25.58
2018-05-17T03:42:03.743Z,27.87
2018-05-17T03:44:31.871Z,31.17
2018-05-17T03:46:59.991Z,25.70
2018-05-17T03:49:28.231Z,25.65
2018-05-17T03:51:56.827Z,30.58
2018-05-17T03:54:25.724Z,25.37
2018-05-17T03:56:53.852Z,25.10
2018-05-17T03:59:21.975Z,25.83
2018-05-17T04:02:02.258Z,24.80
2018-05-17T04:04:42.047Z,23.10
2018-05-17T04:07:10.202Z,22.48
2018-05-17T04:09:38.330Z,25.60
2018-05-17T04:12:06.853Z,23.12
2018-05-17T04:14:34.968Z,26.65
2018-05-17T04:17:04.792Z,25.55
2018-05-17T04:19:32.910Z,23.30
2018-05-17T04:22:01.063Z,26.37
2018-05-17T04:24:29.195Z,27.80
2018-05-17T04:26:58.071Z,24.33
2018-05-17T04:29:27.062Z,21.92
2018-05-17T04:31:55.179Z,25.80
2018-05-17T04:34:23.317Z,22.15
2018-05-17T04:36:51.430Z,22.30
2018-05-17T04:39:23.443Z,25.00
2018-05-17T04:41:51.570Z,21.00
2018-05-17T04:44:19.799Z,19.60
2018-05-17T04:46:47.932Z,19.30
2018-05-17T04:49:16.551Z,17.35
2018-05-17T04:51:44.699Z,17.73
2018-05-17T04:54:14.880Z,18.20
2018-05-17T04:56:43.022Z,19.58
2018-05-17T04:59:11.292Z,18.65
2018-05-17T05:01:39.926Z,18.27
2018-05-17T05:04:08.789Z,20.70
2018-05-17T05:06:37.676Z,20.02
2018-05-17T05:09:06.640Z,18.67
2018-05-17T05:11:34.786Z,21.35
2018-05-17T05:14:02.890Z,18.33
2018-05-17T05:16:32.212Z,23.17
2018-05-17T05:19:01.203Z,26.52
2018-05-17T05:21:29.334Z,27.45
2018-05-17T05:23:57.455Z,26.73
2018-05-17T05:26:26.350Z,34.05
2018-05-17T05:28:55.326Z,38.95
2018-05-17T05:31:23.857Z,43.00
2018-05-17T05:33:51.996Z,41.78
2018-05-17T05:36:20.949Z,39.17
2018-05-17T05:38:49.069Z,41.40
2018-05-17T05:41:18.705Z,46.53
2018-05-17T05:43:46.844Z,47.60
2018-05-17T05:46:14.966Z,45.15
2018-05-17T05:48:43.198Z,44.78
2018-05-17T05:51:11.317Z,42.33
2018-05-17T05:53:40.324Z,49.95
2018-05-17T05:56:08.422Z,50.38
2018-05-17T05:58:37.324Z,55.30
2018-05-17T06:01:05.444Z,45.70
2018-05-17T06:03:33.564Z,48.83
2018-05-17T06:06:01.696Z,42.97
2018-05-17T06:08:29.844Z,43.40
2018-05-17T06:10:57.963Z,49.80
2018-05-17T06:13:26.091Z,46.83
2018-05-17T06:15:54.209Z,50.00
2018-05-17T06:18:22.336Z,46.50
2018-05-17T06:20:50.463Z,46.13
2018-05-17T06:23:18.583Z,45.38
2018-05-17T06:25:46.710Z,44.42
2018-05-17T06:28:14.969Z,45.92
2018-05-17T06:30:43.115Z,45.35
2018-05-17T06:33:12.328Z,43.10
2018-05-17T06:35:40.501Z,50.53
2018-05-17T06:38:08.702Z,46.92
2018-05-17T06:40:38.155Z,49.90
2018-05-17T06:43:09.089Z,51.97
2018-05-17T06:45:38.536Z,54.15
2018-05-17T06:48:06.740Z,49.55
2018-05-17T06:50:35.262Z,51.70
2018-05-17T06:53:04.818Z,50.03
2018-05-17T06:55:34.296Z,52.80
2018-05-17T06:58:02.716Z,56.15
2018-05-17T07:00:30.947Z,64.43
2018-05-17T07:02:59.677Z,57.20
2018-05-17T07:05:28.551Z,56.63
2018-05-17T07:07:59.466Z,61.25
2018-05-17T07:10:27.654Z,66.85
2018-05-17T07:12:56.110Z,55.33
2018-05-17T07:15:24.227Z,55.33
2018-05-17T07:17:53.328Z,48.25
2018-05-17T07:20:21.557Z,46.42
2018-05-17T07:22:49.672Z,35.28
2018-05-17T07:25:18.939Z,32.38
2018-05-17T07:27:47.140Z,34.72
2018-05-17T07:30:15.265Z,36.53
2018-05-17T07:32:43.392Z,34.15
2018-05-17T07:35:12.538Z,25.02
2018-05-17T07:37:40.667Z,23.00
2018-05-17T07:40:09.672Z,24.10
2018-05-17T07:42:38.560Z,22.52
2018-05-17T07:45:07.927Z,24.55
2018-05-17T07:47:36.050Z,25.15
2018-05-17T07:50:04.799Z,24.15
2018-05-17T07:52:34.507Z,22.42
2018-05-17T07:55:02.650Z,23.27
2018-05-17T07:57:32.040Z,22.65
2018-05-17T08:00:00.160Z,23.52
2018-05-17T08:02:28.285Z,21.45
2018-05-17T08:04:56.416Z,21.90
2018-05-17T08:07:24.509Z,21.23
2018-05-17T08:09:52.709Z,19.95
2018-05-17T08:12:20.848Z,17.35
2018-05-17T08:14:48.989Z,15.45
2018-05-17T08:17:18.115Z,15.60
2018-05-17T08:19:46.236Z,16.45
2018-05-17T08:22:15.152Z,16.15
2018-05-17T08:24:43.272Z,18.42
2018-05-17T08:27:12.292Z,18.20
2018-05-17T08:29:40.414Z,17.70
2018-05-17T08:32:10.037Z,16.55
2018-05-17T08:34:38.891Z,17.00
2018-05-17T08:37:07.010Z,16.85
2018-05-17T08:39:35.150Z,20.02
2018-05-17T08:42:03.265Z,26.65
2018-05-17T08:44:31.386Z,19.05
2018-05-17T08:46:59.509Z,18.90
2018-05-17T08:49:27.626Z,19.67
2018-05-17T08:51:56.238Z,16.20
2018-05-17T08:54:25.610Z,18.98
2018-05-17T08:56:53.618Z,18.92
2018-05-17T08:59:25.053Z,18.80
2018-05-17T09:01:54.140Z,18.85
2018-05-17T09:04:27.364Z,18.90
2018-05-17T09:06:55.767Z,18.33
2018-05-17T09:09:32.365Z,19.42
2018-05-17T09:12:00.491Z,20.80
2018-05-17T09:14:28.651Z,20.58
2018-05-17T09:16:56.768Z,25.75
2018-05-17T09:19:26.120Z,23.58
2018-05-17T09:21:54.224Z,22.50
2018-05-17T09:24:22.343Z,29.20
2018-05-17T09:26:51.964Z,31.90
2018-05-17T09:29:26.563Z,28.50
2018-05-17T09:31:54.757Z,36.22
2018-05-17T09:34:23.809Z,32.05
2018-05-17T09:36:51.937Z,34.45
2018-05-17T09:39:20.835Z,32.13
2018-05-17T09:41:49.741Z,33.45
2018-05-17T09:44:17.869Z,32.38
2018-05-17T09:46:46.774Z,40.58
2018-05-17T09:49:15.367Z,41.20
2018-05-17T09:51:43.495Z,44.50
2018-05-17T09:54:12.047Z,45.83
2018-05-17T09:56:40.575Z,51.10
2018-05-17T09:59:20.227Z,44.05
2018-05-17T10:01:49.859Z,43.60
2018-05-17T10:04:32.578Z,47.92
2018-05-17T10:07:01.398Z,45.53
2018-05-17T10:09:29.520Z,42.28
2018-05-17T10:11:58.984Z,45.50
2018-05-17T10:14:28.172Z,42.50
2018-05-17T10:16:56.879Z,48.45
2018-05-17T10:22:35.601Z,44.45
2018-05-17T10:25:04.456Z,49.97
2018-05-17T10:33:31.119Z,45.25
2018-05-17T10:35:59.228Z,44.33
2018-05-17T10:44:33.153Z,39.17
2018-05-17T10:47:02.218Z,47.13
2018-05-17T10:49:30.355Z,43.83
2018-05-17T10:51:58.476Z,44.10
2018-05-17T10:54:26.715Z,47.85
2018-05-17T10:56:55.507Z,47.42
2018-05-17T10:59:31.878Z,41.40
2018-05-17T11:02:00.045Z,39.70
2018-05-17T11:04:41.833Z,45.10
2018-05-17T11:07:09.946Z,47.03
2018-05-17T11:09:38.479Z,39.97
2018-05-17T11:12:07.102Z,56.83
2018-05-17T11:14:35.568Z,43.45
2018-05-17T11:17:03.696Z,40.38
2018-05-17T11:19:32.218Z,42.72
2018-05-17T11:22:00.760Z,38.83
2018-05-17T11:24:29.288Z,42.00
2018-05-17T11:26:58.154Z,48.97
2018-05-17T11:29:26.293Z,33.20
2018-05-17T11:31:55.176Z,38.30
2018-05-17T11:34:24.443Z,37.50
2018-05-17T11:36:54.224Z,39.60
2018-05-17T11:39:23.286Z,42.78
2018-05-17T11:41:52.170Z,40.97
2018-05-17T11:44:20.301Z,33.83
2018-05-17T11:46:48.427Z,35.47
2018-05-17T11:49:20.512Z,35.97
2018-05-17T11:51:49.391Z,43.83
2018-05-17T11:54:21.582Z,38.95
2018-05-17T11:56:49.695Z,37.92
2018-05-17T11:59:17.910Z,37.65
2018-05-17T12:01:46.026Z,41.22
2018-05-17T12:04:14.233Z,32.42
2018-05-17T12:06:42.354Z,36.08
2018-05-17T12:09:15.282Z,37.20
2018-05-17T12:11:45.991Z,38.15
2018-05-17T12:14:14.129Z,31.30
2018-05-17T12:16:42.322Z,37.60
2018-05-17T12:19:10.443Z,62.38
2018-05-17T12:21:38.637Z,37.90
2018-05-17T12:24:07.732Z,40.90
2018-05-17T12:26:36.397Z,37.20
2018-05-17T12:29:06.046Z,43.15
2018-05-17T12:31:34.200Z,34.70
2018-05-17T12:34:02.383Z,35.30
2018-05-17T12:36:30.522Z,33.10
2018-05-17T12:38:58.727Z,33.45
2018-05-17T12:41:26.856Z,40.60
2018-05-17T12:43:54.993Z,39.55
2018-05-17T12:46:23.292Z,32.17
2018-05-17T12:48:55.726Z,34.50
2018-05-17T12:51:24.621Z,29.17
2018-05-17T12:53:52.946Z,30.62
2018-05-17T12:56:21.063Z,31.95
2018-05-17T12:58:49.245Z,34.20
2018-05-17T13:01:17.349Z,28.55
2018-05-17T13:03:45.881Z,34.15
2018-05-17T13:06:15.514Z,31.65
2018-05-17T13:08:43.849Z,31.15
2018-05-17T13:13:44.273Z,27.85
2018-05-17T13:16:12.376Z,25.23
2018-05-17T13:18:42.876Z,30.30
2018-05-17T13:21:10.985Z,25.67
2018-05-17T13:23:40.046Z,28.67
2018-05-17T13:26:08.940Z,26.92
2018-05-17T13:28:37.983Z,25.30
2018-05-17T13:31:06.253Z,27.48
2018-05-17T13:33:35.913Z,23.98
2018-05-17T13:36:04.752Z,24.08
2018-05-17T13:38:33.747Z,21.10
2018-05-17T13:41:02.643Z,22.60
2018-05-17T13:43:30.776Z,22.30
2018-05-17T13:45:58.899Z,20.70
2018-05-17T13:48:29.931Z,23.20
2018-05-17T13:50:58.101Z,24.77
2018-05-17T13:53:26.992Z,18.98
2018-05-17T13:55:55.886Z,21.67
2018-05-17T13:58:24.115Z,23.52
2018-05-17T14:00:55.347Z,21.73
2018-05-17T14:03:23.487Z,23.92
2018-05-17T14:05:51.610Z,25.30
2018-05-17T14:08:19.839Z,18.27
2018-05-17T14:10:52.879Z,20.17
2018-05-17T14:13:23.171Z,23.83
2018-05-17T14:15:52.227Z,24.65
2018-05-17T14:18:23.727Z,15.95
2018-05-17T14:26:48.513Z,21.42
2018-05-17T14:31:59.975Z,19.67
2018-05-17T14:34:32.384Z,19.02
2018-05-17T14:37:03.352Z,23.05
2018-05-17T14:39:31.518Z,26.48
2018-05-17T14:42:02.695Z,18.65
2018-05-17T14:44:31.623Z,17.73
2018-05-17T14:47:01.536Z,24.95
2018-05-17T14:49:31.456Z,21.75
2018-05-17T14:54:34.271Z,18.27
2018-05-17T14:57:04.517Z,18.65
2018-05-17T14:59:33.901Z,18.17
2018-05-17T15:02:04.924Z,15.85
2018-05-17T15:04:33.901Z,14.13
2018-05-17T15:07:02.102Z,22.80
2018-05-17T15:09:31.045Z,19.60
2018-05-17T15:12:00.039Z,17.52
2018-05-17T15:17:00.714Z,17.60
2018-05-17T15:19:30.339Z,15.48
2018-05-17T15:21:58.498Z,19.87
2018-05-17T15:24:27.142Z,13.88
2018-05-17T15:26:55.321Z,16.90
2018-05-17T15:29:24.228Z,19.58
2018-05-17T15:31:53.721Z,14.93
2018-05-17T15:34:23.270Z,15.15
2018-05-17T15:36:53.090Z,18.25
2018-05-17T15:39:23.359Z,18.12
2018-05-17T15:41:51.550Z,15.43
2018-05-17T15:44:22.986Z,14.70
2018-05-17T15:46:51.559Z,15.02
2018-05-17T15:49:31.267Z,16.73
2018-05-17T15:52:02.208Z,17.80
2018-05-17T15:54:30.655Z,14.38
2018-05-17T15:56:59.990Z,16.55
2018-05-17T15:59:29.863Z,18.52
2018-05-17T16:01:58.264Z,18.50
2018-05-17T16:04:27.533Z,17.85
2018-05-17T16:06:55.717Z,15.60
2018-05-17T16:09:24.898Z,15.48
2018-05-17T16:14:30.052Z,19.30
2018-05-17T16:19:30.885Z,13.38
2018-05-17T16:21:59.910Z,15.60
2018-05-17T16:24:30.633Z,16.52
2018-05-17T16:27:00.032Z,16.45
2018-05-17T16:29:28.621Z,18.50
2018-05-17T16:31:58.724Z,22.73
2018-05-17T16:34:27.292Z,18.83
2018-05-17T16:36:55.541Z,19.55
2018-05-17T16:39:24.954Z,21.80
2018-05-17T16:41:53.836Z,17.37
2018-05-17T16:44:22.751Z,23.85
2018-05-17T16:46:50.888Z,15.63
2018-05-17T16:49:19.081Z,15.55
2018-05-17T16:51:47.223Z,16.37
2018-05-17T16:54:15.429Z,15.82
2018-05-17T16:56:43.902Z,10.05
2018-05-17T16:59:16.758Z,16.33
2018-05-17T17:01:44.890Z,15.60
2018-05-17T17:04:13.610Z,17.48
2018-05-17T17:06:42.882Z,9.95
2018-05-17T17:09:12.467Z,13.70
2018-05-17T17:11:40.618Z,11.88
2018-05-17T17:14:09.418Z,9.25
2018-05-17T17:16:37.855Z,13.02
2018-05-17T17:19:05.987Z,12.90
2018-05-17T17:21:35.045Z,13.30
2018-05-17T17:24:03.167Z,12.07
2018-05-17T17:26:31.300Z,13.88
2018-05-17T17:28:59.491Z,11.65
2018-05-17T17:31:28.124Z,14.98
2018-05-17T17:33:56.238Z,12.88
2018-05-17T17:36:24.395Z,20.15
2018-05-17T17:38:52.592Z,13.60
2018-05-17T17:41:20.765Z,10.25
2018-05-17T17:43:51.035Z,10.77
2018-05-17T17:46:20.117Z,10.00
2018-05-17T17:48:49.035Z,18.37
2018-05-17T17:51:17.143Z,15.48
2018-05-17T17:53:45.271Z,12.10
2018-05-17T17:56:13.396Z,8.80
2018-05-17T17:58:41.529Z,14.48
2018-05-17T18:01:09.638Z,8.10
2018-05-17T18:03:37.804Z,12.45
2018-05-17T18:06:14.905Z,9.93
2018-05-17T18:08:44.012Z,13.43
2018-05-17T18:11:12.981Z,9.57
2018-05-17T18:13:41.099Z,12.30
2018-05-17T18:16:09.232Z,11.48
2018-05-17T18:18:37.479Z,17.52
2018-05-17T18:21:05.596Z,13.20
2018-05-17T18:23:33.719Z,13.55
2018-05-17T18:26:02.320Z,12.18
2018-05-17T18:28:31.457Z,24.23
2018-05-17T18:30:59.650Z,15.63
2018-05-17T18:33:27.790Z,16.70
2018-05-17T18:35:56.612Z,13.13
2018-05-17T18:38:30.613Z,15.00
2018-05-17T18:40:59.753Z,14.43
2018-05-17T18:43:27.876Z,20.52
2018-05-17T18:45:55.990Z,11.82
2018-05-17T18:48:24.215Z,11.70
2018-05-17T18:50:53.177Z,12.60
2018-05-17T18:53:21.303Z,12.48
2018-05-17T18:55:49.461Z,15.43
2018-05-17T18:58:17.724Z,15.43
2018-05-17T19:00:47.722Z,20.48
2018-05-17T19:03:15.863Z,16.73
2018-05-17T19:05:43.986Z,13.68
2018-05-17T19:08:12.879Z,16.70
2018-05-17T19:10:41.814Z,14.68
2018-05-17T19:13:09.961Z,14.50
2018-05-17T19:15:38.855Z,15.75
2018-05-17T19:18:07.443Z,17.08
2018-05-17T19:20:35.943Z,13.10
2018-05-17T19:23:04.078Z,15.70
2018-05-17T19:25:33.518Z,13.70
2018-05-17T19:28:02.041Z,14.80
2018-05-17T19:30:30.254Z,11.88
2018-05-17T19:32:59.143Z,16.35
2018-05-17T19:35:28.637Z,13.90
2018-05-17T19:37:56.747Z,22.23
2018-05-17T19:40:25.656Z,20.88
2018-05-17T19:42:54.771Z,15.50
2018-05-17T19:45:23.522Z,21.40
2018-05-17T19:47:52.068Z,17.33
2018-05-17T19:50:20.200Z,16.58
2018-05-17T19:52:48.381Z,16.27
2018-05-17T19:55:17.567Z,19.35
2018-05-17T19:57:45.783Z,20.65
2018-05-17T20:00:13.931Z,38.22
2018-05-17T20:02:42.058Z,19.48
2018-05-17T20:05:10.181Z,18.70
2018-05-17T20:07:41.200Z,14.68
2018-05-17T20:10:09.829Z,12.93
2018-05-17T20:12:38.777Z,14.40
2018-05-17T20:15:06.991Z,16.02
2018-05-17T20:17:35.236Z,15.77
2018-05-17T20:20:03.381Z,14.77
2018-05-17T20:22:31.502Z,19.00
2018-05-17T20:24:59.625Z,18.45
2018-05-17T20:27:29.807Z,19.73
2018-05-17T20:29:57.955Z,14.98
2018-05-17T20:32:27.407Z,14.00
2018-05-17T20:34:56.272Z,22.13
2018-05-17T20:37:24.412Z,15.05
2018-05-17T20:39:52.547Z,16.62
2018-05-17T20:42:21.514Z,16.73
2018-05-17T20:44:50.327Z,18.52
2018-05-17T20:47:20.609Z,14.25
2018-05-17T20:49:48.722Z,18.12
2018-05-17T20:52:17.641Z,19.15
2018-05-17T20:54:45.719Z,23.23
2018-05-17T20:57:13.859Z,17.73
2018-05-17T20:59:44.277Z,15.65
2018-05-17T21:02:13.435Z,21.27
2018-05-17T21:04:41.574Z,18.52
2018-05-17T21:07:09.706Z,15.35
2018-05-17T21:09:37.881Z,16.17
2018-05-17T21:12:06.028Z,17.65
2018-05-17T21:14:34.153Z,17.55
2018-05-17T21:17:03.054Z,16.12
2018-05-17T21:19:31.939Z,20.25
2018-05-17T21:22:00.080Z,16.00
2018-05-17T21:24:28.220Z,22.45
2018-05-17T21:26:56.332Z,20.42
2018-05-17T21:29:24.486Z,23.30
2018-05-17T21:31:53.597Z,17.05
2018-05-17T21:34:22.486Z,21.37
2018-05-17T21:36:50.616Z,25.88
2018-05-17T21:39:19.252Z,19.85
2018-05-17T21:41:47.391Z,13.35
2018-05-17T21:44:15.510Z,14.10
2018-05-17T21:46:44.383Z,17.70
2018-05-17T21:49:14.519Z,19.12
2018-05-17T21:51:43.407Z,14.77
2018-05-17T21:54:12.642Z,20.70
2018-05-17T21:56:41.527Z,18.00
2018-05-17T21:59:18.043Z,16.17
2018-05-17T22:01:47.438Z,17.05
2018-05-17T22:04:36.509Z,21.73
2018-05-17T22:07:05.734Z,19.05
2018-05-17T22:09:35.000Z,14.50
2018-05-17T22:12:05.100Z,19.62
2018-05-17T22:14:33.704Z,20.23
2018-05-17T22:17:01.801Z,23.20
2018-05-17T22:19:30.231Z,18.52
2018-05-17T22:21:58.369Z,18.77
2018-05-17T22:24:27.109Z,17.60
2018-05-17T22:26:57.194Z,20.48
2018-05-17T22:29:26.233Z,17.55
2018-05-17T22:31:57.492Z,17.08
2018-05-17T22:34:26.074Z,17.77
2018-05-17T22:36:55.852Z,18.17
2018-05-17T22:39:25.349Z,16.90
2018-05-17T22:41:59.582Z,19.90
2018-05-17T22:44:33.360Z,17.10
2018-05-17T22:47:02.589Z,23.42
2018-05-17T22:49:31.006Z,20.52
2018-05-17T22:51:59.529Z,17.92
2018-05-17T22:54:29.068Z,21.45
2018-05-17T22:57:09.632Z,22.00
2018-05-17T22:59:38.605Z,20.10
2018-05-17T23:02:06.857Z,19.62
2018-05-17T23:04:36.325Z,20.73
2018-05-17T23:07:04.461Z,19.98
2018-05-17T23:09:32.673Z,18.37
2018-05-17T23:12:00.768Z,22.95
2018-05-17T23:14:29.892Z,20.55
2018-05-17T23:16:58.703Z,27.00
2018-05-17T23:19:27.021Z,18.27
2018-05-17T23:21:55.958Z,20.00
2018-05-17T23:24:25.129Z,17.20
2018-05-17T23:26:54.133Z,21.50
2018-05-17T23:29:22.262Z,20.77
2018-05-17T23:31:50.443Z,17.30
2018-05-17T23:34:18.571Z,20.55
2018-05-17T23:36:46.703Z,20.35
2018-05-17T23:39:14.969Z,20.77
2018-05-17T23:41:45.874Z,16.17
2018-05-17T23:44:14.283Z,19.90
2018-05-17T23:46:42.788Z,18.35
2018-05-17T23:49:12.631Z,20.02
2018-05-17T23:51:40.779Z,23.40
2018-05-17T23:54:09.646Z,22.27
2018-05-17T23:56:37.802Z,18.27
2018-05-17T23:59:06.320Z,15.85
